Time;durP1;ratioP1;P1;durP2;ratioP2;P2;SDS_P1;SDS_P2;PMS_P1;PMS_P2;Temp;Humidity;BMP_temperature;BMP_pressure;BME280_temperature;BME280_humidity;BME280_pressure;Samples;Min_cycle;Max_cycle;Signal;HPM_P1;HPM_P2
2023/01/27 00:01:05;;;;;;;0.00;0.00;;;0.20;99.90;;;;;;5092261;28;20183;-64
2023/01/27 00:03:31;;;;;;;0.00;0.00;;;0.20;99.90;;;;;;5091726;28;20172;-65
2023/01/27 00:05:59;;;;;;;0.00;0.00;;;0.20;99.90;;;;;;5090967;28;20266;-64
2023/01/27 00:08:25;;;;;;;0.00;0.00;;;0.20;99.90;;;;;;5091760;28;20187;-64
2023/01/27 00:13:25;;;;;;;0.00;0.00;;;0.20;99.90;;;;;;5091816;28;20544;-64
2023/01/27 00:13:36;;;;;;;0.00;0.00;;;0.30;99.90;;;;;;5091414;28;20654;-65
2023/01/27 00:16:02;;;;;;;0.00;0.00;;;0.30;99.90;;;;;;5091805;28;20263;-66
2023/01/27 00:18:27;;;;;;;0.30;0.30;;;0.20;99.90;;;;;;5091731;28;20250;-65
2023/01/27 00:26:21;;;;;;;0.30;0.30;;;0.20;99.90;;;;;;5091919;28;20182;-65
2023/01/27 00:28:47;;;;;;;0.00;0.00;;;0.20;99.90;;;;;;5091524;28;20175;-64
2023/01/27 00:34:07;;;;;;;0.10;0.10;;;0.20;99.90;;;;;;5090947;28;20259;-65
2023/01/27 00:36:35;;;;;;;0.00;0.00;;;0.20;99.90;;;;;;5090922;28;20187;-65
2023/01/27 00:39:01;;;;;;;0.00;0.00;;;0.30;99.90;;;;;;5090796;28;20233;-66
2023/01/27 00:41:27;;;;;;;0.00;0.00;;;0.30;99.90;;;;;;5091524;28;20531;-65
2023/01/27 00:43:54;;;;;;;0.00;0.00;;;0.20;99.90;;;;;;5091236;28;20250;-65
2023/01/27 00:46:22;;;;;;;0.23;0.23;;;0.30;99.90;;;;;;5091305;28;20172;-65
2023/01/27 00:48:48;;;;;;;0.00;0.00;;;0.30;99.90;;;;;;5091299;28;20186;-65
2023/01/27 00:51:14;;;;;;;0.63;0.60;;;0.30;99.90;;;;;;5095051;28;20525;-65
2023/01/27 00:53:40;;;;;;;0.00;0.00;;;0.30;99.90;;;;;;5094922;28;20215;-65
2023/01/27 00:56:06;;;;;;;0.00;0.00;;;0.20;99.90;;;;;;5095581;28;20183;-65
2023/01/27 00:58:32;;;;;;;0.10;0.10;;;0.20;99.90;;;;;;5095352;28;20203;-66
2023/01/27 01:01:00;;;;;;;0.10;0.10;;;0.20;99.90;;;;;;5095102;28;20168;-65
2023/01/27 01:03:31;;;;;;;0.00;0.00;;;0.20;99.90;;;;;;5095195;28;20172;-65
2023/01/27 01:06:01;;;;;;;0.10;0.10;;;0.20;99.90;;;;;;5094426;28;20183;-65
2023/01/27 01:08:27;;;;;;;0.00;0.00;;;0.20;99.90;;;;;;5094931;28;20180;-65
2023/01/27 01:10:53;;;;;;;0.10;0.10;;;0.20;99.90;;;;;;5095018;28;20180;-64
2023/01/27 01:13:20;;;;;;;0.37;0.23;;;0.20;99.90;;;;;;5094429;28;20318;-65
2023/01/27 01:15:46;;;;;;;0.10;0.10;;;0.20;99.90;;;;;;5095025;28;20262;-65
2023/01/27 01:18:12;;;;;;;0.05;0.05;;;0.20;99.90;;;;;;5094888;28;20255;-65
2023/01/27 01:20:40;;;;;;;0.10;0.10;;;0.20;99.90;;;;;;5094529;28;20635;-65
2023/01/27 01:23:06;;;;;;;0.00;0.00;;;0.30;99.90;;;;;;5095101;28;20183;-64
2023/01/27 01:25:32;;;;;;;0.00;0.00;;;0.30;99.90;;;;;;5094978;28;20179;-65
2023/01/27 01:27:58;;;;;;;0.07;0.07;;;0.30;99.90;;;;;;5094445;28;20191;-65
2023/01/27 01:30:25;;;;;;;0.00;0.00;;;0.30;99.90;;;;;;5094571;28;20176;-64
2023/01/27 01:32:51;;;;;;;0.20;0.20;;;0.30;99.90;;;;;;5094578;28;20200;-65
2023/01/27 01:35:17;;;;;;;0.00;0.00;;;0.30;99.90;;;;;;5094108;28;20176;-65
2023/01/27 01:37:43;;;;;;;0.00;0.00;;;0.30;99.90;;;;;;5094656;28;20267;-64
2023/01/27 01:40:11;;;;;;;0.00;0.00;;;0.30;99.90;;;;;;5094124;28;20654;-65
2023/01/27 01:43:00;;;;;;;0.00;0.00;;;0.30;99.90;;;;;;5093922;28;20184;-64
2023/01/27 01:45:48;;;;;;;0.47;0.47;;;0.30;99.90;;;;;;5093971;28;20245;-64
2023/01/27 01:48:31;;;;;;;0.00;0.00;;;0.30;99.90;;;;;;5080654;28;20184;-64
2023/01/27 01:51:07;;;;;;;0.00;0.00;;;0.30;99.90;;;;;;5093974;28;20202;-64
2023/01/27 01:53:39;;;;;;;0.00;0.00;;;0.30;99.90;;;;;;5094246;28;20235;-65
2023/01/27 01:56:13;;;;;;;0.00;0.00;;;0.30;99.90;;;;;;5094054;28;20259;-65
2023/01/27 01:58:41;;;;;;;0.20;0.20;;;0.30;99.90;;;;;;5094326;28;20180;-65
2023/01/27 02:01:07;;;;;;;0.30;0.30;;;0.40;99.90;;;;;;5093231;28;20192;-65
2023/01/27 02:03:36;;;;;;;0.00;0.00;;;0.40;99.90;;;;;;5093873;28;20275;-64
2023/01/27 02:06:01;;;;;;;0.27;0.27;;;0.40;99.90;;;;;;5093585;28;20204;-65
2023/01/27 02:08:38;;;;;;;0.00;0.00;;;0.30;99.90;;;;;;5093737;28;20270;-65
2023/01/27 02:11:05;;;;;;;0.00;0.00;;;0.30;99.90;;;;;;5093609;28;20179;-66
2023/01/27 02:13:31;;;;;;;0.00;0.00;;;0.30;99.90;;;;;;5093065;28;20236;-65
2023/01/27 02:15:56;;;;;;;0.77;0.20;;;0.30;99.90;;;;;;5093040;28;20184;-65
2023/01/27 02:18:22;;;;;;;0.10;0.10;;;0.30;99.90;;;;;;5093417;28;20172;-65
2023/01/27 02:20:53;;;;;;;0.00;0.00;;;0.30;99.90;;;;;;5093344;28;20573;-65
2023/01/27 02:23:27;;;;;;;0.00;0.00;;;0.30;99.90;;;;;;5093415;28;20703;-65
2023/01/27 02:25:56;;;;;;;0.00;0.00;;;0.30;99.90;;;;;;5093358;28;20195;-65
2023/01/27 02:28:24;;;;;;;0.33;0.33;;;0.40;99.90;;;;;;5093408;28;20176;-65
2023/01/27 02:30:50;;;;;;;0.00;0.00;;;0.40;99.90;;;;;;5093294;28;20650;-65
2023/01/27 02:33:15;;;;;;;0.00;0.00;;;0.40;99.90;;;;;;5093078;28;20260;-65
2023/01/27 02:36:06;;;;;;;0.00;0.00;;;0.40;99.90;;;;;;5093141;28;20188;-65
2023/01/27 02:38:39;;;;;;;0.10;0.10;;;0.40;99.90;;;;;;5093190;28;20754;-65
2023/01/27 02:41:19;;;;;;;0.00;0.00;;;0.40;99.90;;;;;;5093446;28;20180;-65
2023/01/27 02:43:46;;;;;;;0.40;0.40;;;0.40;99.90;;;;;;5092990;28;20180;-64
2023/01/27 02:46:12;;;;;;;0.30;0.30;;;0.40;99.90;;;;;;5093302;28;20226;-64
2023/01/27 02:48:37;;;;;;;0.00;0.00;;;0.40;99.90;;;;;;5093002;28;20184;-64
2023/01/27 02:51:03;;;;;;;0.27;0.27;;;0.40;99.90;;;;;;5092840;28;20188;-65
2023/01/27 02:53:29;;;;;;;0.00;0.00;;;0.40;99.90;;;;;;5091928;28;20626;-64
2023/01/27 02:55:54;;;;;;;0.00;0.00;;;0.40;99.90;;;;;;5091055;28;20183;-64
2023/01/27 02:58:20;;;;;;;0.00;0.00;;;0.30;99.90;;;;;;5092156;28;20179;-64
2023/01/27 03:00:45;;;;;;;0.17;0.17;;;0.30;99.90;;;;;;5092464;28;20172;-64
2023/01/27 03:03:11;;;;;;;0.13;0.13;;;0.30;99.90;;;;;;5090765;28;20623;-64
2023/01/27 03:05:37;;;;;;;0.10;0.10;;;0.30;99.90;;;;;;5092004;28;20176;-64
2023/01/27 03:08:02;;;;;;;0.00;0.00;;;0.30;99.90;;;;;;5091914;28;20168;-65
2023/01/27 03:10:28;;;;;;;0.20;0.20;;;0.30;99.90;;;;;;5092003;28;20191;-64
2023/01/27 03:12:53;;;;;;;0.00;0.00;;;0.30;99.90;;;;;;5091064;28;20230;-64
2023/01/27 03:18:17;;;;;;;0.30;0.30;;;0.20;99.90;;;;;;5091882;28;20207;-64
2023/01/27 03:20:45;;;;;;;0.20;0.20;;;0.30;99.90;;;;;;5087386;28;20194;-64
2023/01/27 03:23:11;;;;;;;0.23;0.23;;;0.20;99.90;;;;;;5092097;28;20180;-64
2023/01/27 03:25:41;;;;;;;0.00;0.00;;;0.30;99.90;;;;;;5091957;28;20176;-64
2023/01/27 03:28:06;;;;;;;0.10;0.10;;;0.30;99.90;;;;;;5090517;28;20180;-64
2023/01/27 03:30:33;;;;;;;0.10;0.10;;;0.20;99.90;;;;;;5091698;28;20180;-64
2023/01/27 03:32:59;;;;;;;0.20;0.10;;;0.20;99.90;;;;;;5091239;28;20290;-65
2023/01/27 03:35:33;;;;;;;0.10;0.10;;;0.20;99.90;;;;;;5091654;28;20267;-65
2023/01/27 03:46:17;;;;;;;0.37;0.37;;;0.20;99.90;;;;;;5088330;28;20271;-64
2023/01/27 03:48:48;;;;;;;0.33;0.33;;;0.20;99.90;;;;;;5088228;28;20183;-64
2023/01/27 03:51:14;;;;;;;0.00;0.00;;;0.20;99.90;;;;;;5091118;28;20263;-64
2023/01/27 03:53:39;;;;;;;0.00;0.00;;;0.20;99.90;;;;;;5091378;28;20734;-64
2023/01/27 03:56:05;;;;;;;0.40;0.40;;;0.10;99.90;;;;;;5091665;28;20657;-64
2023/01/27 03:58:34;;;;;;;0.00;0.00;;;0.10;99.90;;;;;;5091328;28;20207;-64
2023/01/27 04:01:01;;;;;;;0.00;0.00;;;0.10;99.90;;;;;;5091996;28;20186;-64
2023/01/27 04:09:02;;;;;;;0.00;0.00;;;0.20;99.90;;;;;;5092165;28;20183;-65
2023/01/27 04:14:13;;;;;;;0.00;0.00;;;0.20;99.90;;;;;;5091889;28;20298;-64
2023/01/27 04:16:38;;;;;;;0.10;0.10;;;0.20;99.90;;;;;;5091316;28;20188;-65
2023/01/27 04:19:07;;;;;;;0.00;0.00;;;0.20;99.90;;;;;;5090190;28;20528;-65
2023/01/27 04:21:33;;;;;;;0.53;0.53;;;0.20;99.90;;;;;;5091838;28;20516;-65
2023/01/27 04:23:59;;;;;;;0.00;0.00;;;0.20;99.90;;;;;;5090521;28;20172;-65
2023/01/27 04:26:24;;;;;;;0.20;0.20;;;0.20;99.90;;;;;;5090746;28;20184;-66
2023/01/27 04:28:50;;;;;;;0.00;0.00;;;0.10;99.90;;;;;;5090733;28;20597;-70
2023/01/27 04:31:16;;;;;;;0.00;0.00;;;0.10;99.90;;;;;;5091489;28;20194;-67
2023/01/27 04:33:43;;;;;;;0.10;0.10;;;0.20;99.90;;;;;;5091159;28;20216;-68
2023/01/27 04:36:12;;;;;;;0.00;0.00;;;0.20;99.90;;;;;;5091193;28;20172;-68
2023/01/27 04:38:38;;;;;;;0.00;0.00;;;0.20;99.90;;;;;;5091053;28;20212;-68
2023/01/27 04:41:04;;;;;;;0.10;0.10;;;0.10;99.90;;;;;;5090602;28;20905;-68
2023/01/27 04:43:29;;;;;;;0.00;0.00;;;0.10;99.90;;;;;;5090859;28;20180;-66
2023/01/27 04:45:55;;;;;;;0.00;0.00;;;0.10;99.90;;;;;;5091033;28;20176;-66
2023/01/27 04:48:20;;;;;;;0.10;0.10;;;0.10;99.90;;;;;;5091523;28;20510;-66
2023/01/27 04:50:46;;;;;;;0.00;0.00;;;0.10;99.90;;;;;;5091357;28;20180;-66
2023/01/27 04:53:11;;;;;;;0.00;0.00;;;0.10;99.90;;;;;;5091644;28;20196;-66
2023/01/27 04:55:37;;;;;;;0.40;0.40;;;0.10;99.90;;;;;;5091717;28;20172;-65
2023/01/27 04:58:03;;;;;;;0.00;0.00;;;0.10;99.90;;;;;;5090244;28;20187;-66
2023/01/27 05:00:30;;;;;;;0.00;0.00;;;0.10;99.90;;;;;;5091492;28;20206;-68
2023/01/27 05:02:56;;;;;;;0.00;0.00;;;0.10;99.90;;;;;;5089594;28;20191;-68
2023/01/27 05:05:22;;;;;;;0.10;0.10;;;0.00;99.90;;;;;;5091650;28;20184;-68
2023/01/27 05:07:47;;;;;;;0.10;0.10;;;0.00;99.90;;;;;;5091117;28;20569;-68
2023/01/27 05:10:13;;;;;;;0.00;0.00;;;0.00;99.90;;;;;;5091129;28;20181;-68
2023/01/27 05:12:38;;;;;;;0.00;0.00;;;0.00;99.90;;;;;;5091179;28;20239;-68
2023/01/27 05:15:04;;;;;;;0.00;0.00;;;0.00;99.90;;;;;;5090913;28;20248;-68
2023/01/27 05:17:31;;;;;;;0.10;0.10;;;0.00;99.90;;;;;;5091153;28;20184;-68
2023/01/27 05:19:57;;;;;;;0.00;0.00;;;0.00;99.90;;;;;;5091375;28;20190;-68
2023/01/27 05:22:22;;;;;;;0.00;0.00;;;0.00;99.90;;;;;;5091319;28;20172;-68
2023/01/27 05:24:48;;;;;;;0.00;0.00;;;0.00;99.90;;;;;;5090886;28;20606;-68
2023/01/27 05:27:13;;;;;;;0.00;0.00;;;0.00;99.90;;;;;;5091133;28;20221;-68
2023/01/27 05:29:39;;;;;;;0.00;0.00;;;0.00;99.90;;;;;;5090928;28;20169;-68
2023/01/27 05:32:04;;;;;;;0.00;0.00;;;0.00;99.90;;;;;;5090585;28;20519;-68
2023/01/27 05:34:30;;;;;;;0.00;0.00;;;0.00;99.90;;;;;;5090882;28;20215;-68
2023/01/27 05:36:55;;;;;;;0.00;0.00;;;0.00;99.90;;;;;;5091977;28;20180;-68
2023/01/27 05:39:21;;;;;;;0.00;0.00;;;0.00;99.90;;;;;;5093250;28;20653;-68
2023/01/27 05:41:46;;;;;;;0.00;0.00;;;0.00;99.90;;;;;;5094432;28;20168;-68
2023/01/27 05:44:12;;;;;;;0.20;0.20;;;0.00;99.90;;;;;;5094326;28;20184;-68
2023/01/27 05:46:39;;;;;;;0.00;0.00;;;0.00;99.90;;;;;;5094384;28;20561;-68
2023/01/27 05:49:05;;;;;;;0.00;0.00;;;0.00;99.90;;;;;;5092921;28;20176;-68
2023/01/27 05:51:38;;;;;;;0.00;0.00;;;0.00;99.90;;;;;;5094461;28;20179;-68
2023/01/27 05:54:04;;;;;;;0.00;0.00;;;0.00;99.90;;;;;;5094053;28;20219;-68
2023/01/27 05:56:30;;;;;;;0.00;0.00;;;0.00;99.90;;;;;;5094444;28;20168;-68
2023/01/27 05:58:56;;;;;;;0.00;0.00;;;0.00;99.90;;;;;;5094148;28;20255;-68
2023/01/27 06:01:25;;;;;;;0.27;0.27;;;0.00;99.90;;;;;;5094140;28;20195;-68
2023/01/27 06:03:51;;;;;;;0.00;0.00;;;0.00;99.90;;;;;;5093451;28;20176;-68
2023/01/27 06:06:18;;;;;;;0.00;0.00;;;0.00;99.90;;;;;;5093728;28;20579;-68
2023/01/27 06:08:45;;;;;;;0.50;0.50;;;0.00;99.90;;;;;;5093850;28;20184;-68
2023/01/27 06:11:11;;;;;;;0.00;0.00;;;0.00;99.90;;;;;;5094328;28;20176;-67
2023/01/27 06:13:37;;;;;;;0.00;0.00;;;0.00;99.90;;;;;;5092611;28;20251;-68
2023/01/27 06:16:05;;;;;;;0.00;0.00;;;0.00;99.90;;;;;;5094059;28;20666;-68
2023/01/27 06:18:31;;;;;;;0.00;0.00;;;0.00;99.90;;;;;;5094098;28;20175;-68
2023/01/27 06:20:58;;;;;;;0.00;0.00;;;0.00;99.90;;;;;;5094008;28;20558;-68
2023/01/27 06:23:26;;;;;;;0.10;0.10;;;0.00;99.90;;;;;;5093865;28;20184;-68
2023/01/27 06:25:51;;;;;;;0.00;0.00;;;0.00;99.90;;;;;;5094092;28;20184;-68
2023/01/27 06:28:17;;;;;;;0.00;0.00;;;0.00;99.90;;;;;;5075898;28;20180;-68
2023/01/27 06:30:43;;;;;;;0.40;0.37;;;0.00;99.90;;;;;;5093649;28;20188;-68
2023/01/27 06:33:09;;;;;;;0.03;0.03;;;0.10;99.90;;;;;;5093462;28;20216;-68
2023/01/27 06:35:36;;;;;;;0.00;0.00;;;0.10;99.90;;;;;;5093765;28;20176;-68
2023/01/27 06:38:03;;;;;;;0.00;0.00;;;0.10;99.90;;;;;;5093624;28;20192;-68
2023/01/27 06:40:30;;;;;;;0.00;0.00;;;0.10;99.90;;;;;;5093643;28;20184;-67
2023/01/27 06:42:56;;;;;;;0.00;0.00;;;0.10;99.90;;;;;;5092300;28;20184;-68
2023/01/27 06:45:22;;;;;;;0.10;0.10;;;0.10;99.90;;;;;;5093681;28;20191;-68
2023/01/27 06:47:55;;;;;;;0.17;0.17;;;0.10;99.90;;;;;;5093283;28;20657;-68
2023/01/27 06:50:22;;;;;;;0.10;0.10;;;0.10;99.90;;;;;;5093552;28;20184;-68
2023/01/27 06:52:48;;;;;;;0.00;0.00;;;0.20;99.90;;;;;;5093137;28;20539;-68
2023/01/27 06:55:14;;;;;;;0.00;0.00;;;0.10;99.90;;;;;;5093406;28;20179;-66
2023/01/27 06:57:40;;;;;;;0.00;0.00;;;0.10;99.90;;;;;;5093423;28;20172;-65
2023/01/27 07:00:06;;;;;;;0.10;0.10;;;0.10;99.90;;;;;;5093183;28;20172;-66
2023/01/27 07:02:32;;;;;;;0.00;0.00;;;0.10;99.90;;;;;;5093310;28;20176;-65
2023/01/27 07:04:57;;;;;;;0.03;0.03;;;0.10;99.90;;;;;;5093034;28;20168;-66
2023/01/27 07:07:23;;;;;;;0.10;0.10;;;0.10;99.90;;;;;;5091983;28;20188;-67
2023/01/27 07:09:48;;;;;;;0.00;0.00;;;0.00;99.90;;;;;;5093025;28;20638;-68
2023/01/27 07:12:14;;;;;;;0.00;0.00;;;0.00;99.90;;;;;;5092864;28;20219;-68
2023/01/27 07:14:39;;;;;;;0.00;0.00;;;0.00;99.90;;;;;;5093066;28;20212;-68
2023/01/27 07:17:06;;;;;;;0.00;0.00;;;0.00;99.90;;;;;;5092890;28;20172;-66
2023/01/27 07:19:31;;;;;;;0.03;0.03;;;0.00;99.90;;;;;;5092887;28;20225;-66
2023/01/27 07:21:57;;;;;;;0.00;0.00;;;0.00;99.90;;;;;;5092796;28;20176;-67
2023/01/27 07:24:22;;;;;;;0.00;0.00;;;0.00;99.90;;;;;;5092971;28;20205;-66
2023/01/27 07:26:48;;;;;;;0.00;0.00;;;0.00;99.90;;;;;;5092617;28;20179;-66
2023/01/27 07:29:13;;;;;;;0.00;0.00;;;0.00;99.90;;;;;;5091576;28;20184;-67
2023/01/27 07:31:39;;;;;;;0.03;0.03;;;0.00;99.90;;;;;;5092901;28;20180;-67
2023/01/27 07:34:04;;;;;;;0.00;0.00;;;0.00;99.90;;;;;;5091339;28;20219;-66
2023/01/27 07:36:30;;;;;;;0.00;0.00;;;0.00;99.90;;;;;;5092693;28;20179;-66
2023/01/27 07:38:55;;;;;;;0.00;0.00;;;0.00;99.90;;;;;;5092542;28;20193;-67
2023/01/27 07:41:21;;;;;;;0.00;0.00;;;0.10;99.90;;;;;;5092755;28;20213;-66
2023/01/27 07:43:47;;;;;;;0.00;0.00;;;0.00;99.90;;;;;;5092468;28;20643;-67
2023/01/27 07:46:13;;;;;;;0.10;0.10;;;0.10;99.90;;;;;;5092573;28;20172;-67
2023/01/27 07:48:39;;;;;;;0.00;0.00;;;0.10;99.90;;;;;;5092496;28;20180;-67
2023/01/27 07:51:04;;;;;;;0.00;0.00;;;0.10;99.90;;;;;;5092187;28;20178;-67
2023/01/27 07:53:30;;;;;;;0.00;0.00;;;0.10;99.90;;;;;;5092280;28;20226;-67
2023/01/27 07:55:58;;;;;;;0.00;0.00;;;0.10;99.90;;;;;;5092606;28;20180;-66
2023/01/27 07:58:24;;;;;;;0.43;0.43;;;0.10;99.90;;;;;;5092712;28;20704;-67
2023/01/27 08:00:49;;;;;;;0.00;0.00;;;0.10;99.90;;;;;;5091950;28;20172;-68
2023/01/27 08:03:23;;;;;;;0.00;0.00;;;0.10;99.90;;;;;;5092093;28;20656;-67
2023/01/27 08:05:49;;;;;;;0.00;0.00;;;0.10;99.90;;;;;;5092081;28;20267;-67
2023/01/27 08:08:15;;;;;;;0.00;0.00;;;0.10;99.90;;;;;;5092104;28;20571;-66
2023/01/27 08:10:45;;;;;;;0.10;0.10;;;0.10;99.90;;;;;;5092059;28;20514;-66
2023/01/27 08:13:11;;;;;;;0.00;0.00;;;0.20;99.90;;;;;;5091906;28;20232;-66
2023/01/27 08:15:37;;;;;;;0.00;0.00;;;0.20;99.90;;;;;;5091679;28;20178;-67
2023/01/27 08:18:03;;;;;;;0.00;0.00;;;0.20;99.90;;;;;;5092012;28;20182;-67
2023/01/27 08:20:28;;;;;;;0.00;0.00;;;0.20;99.90;;;;;;5091768;28;20232;-67
2023/01/27 08:22:54;;;;;;;0.00;0.00;;;0.20;99.90;;;;;;5091899;28;20523;-66
2023/01/27 08:25:21;;;;;;;0.00;0.00;;;0.30;99.90;;;;;;5091944;28;20211;-67
2023/01/27 08:27:55;;;;;;;0.00;0.00;;;0.20;99.90;;;;;;5091830;28;20177;-67
2023/01/27 08:30:21;;;;;;;0.10;0.10;;;0.30;99.90;;;;;;5091972;28;20172;-67
2023/01/27 08:32:46;;;;;;;0.23;0.23;;;0.40;99.90;;;;;;5091563;28;20172;-66
2023/01/27 08:35:12;;;;;;;0.10;0.10;;;0.40;99.90;;;;;;5092066;28;20535;-66
2023/01/27 08:37:38;;;;;;;0.00;0.00;;;0.50;99.90;;;;;;5092003;28;20246;-67
2023/01/27 08:40:03;;;;;;;0.13;0.13;;;0.50;99.90;;;;;;5091874;28;20698;-66
2023/01/27 08:42:29;;;;;;;0.30;0.30;;;0.60;99.90;;;;;;5091885;28;20169;-67
2023/01/27 08:44:54;;;;;;;0.07;0.07;;;0.60;99.90;;;;;;5091717;28;20255;-67
2023/01/27 08:47:20;;;;;;;0.00;0.00;;;0.70;99.90;;;;;;5091932;28;20176;-67
2023/01/27 08:49:46;;;;;;;0.00;0.00;;;0.70;99.90;;;;;;5091624;28;20365;-67
2023/01/27 08:52:12;;;;;;;0.08;0.08;;;0.80;99.90;;;;;;5091862;28;20179;-67
2023/01/27 08:54:38;;;;;;;0.30;0.30;;;0.80;99.90;;;;;;5090410;28;20219;-67
2023/01/27 08:57:03;;;;;;;0.00;0.00;;;0.80;99.90;;;;;;5091700;28;20188;-67
2023/01/27 08:59:29;;;;;;;0.00;0.00;;;0.90;99.90;;;;;;5091664;28;20249;-67
2023/01/27 09:01:54;;;;;;;0.00;0.00;;;0.90;99.90;;;;;;5091716;28;20168;-67
2023/01/27 09:04:21;;;;;;;0.10;0.10;;;0.90;99.90;;;;;;5091667;28;20180;-67
2023/01/27 09:06:48;;;;;;;0.03;0.03;;;0.90;99.90;;;;;;5091438;28;20191;-67
2023/01/27 09:09:14;;;;;;;0.00;0.00;;;1.00;99.90;;;;;;5091660;28;20172;-67
2023/01/27 09:11:42;;;;;;;0.00;0.00;;;1.00;99.90;;;;;;5092240;28;20223;-67
2023/01/27 09:14:07;;;;;;;0.05;0.05;;;1.00;99.90;;;;;;5095173;28;20277;-67
2023/01/27 09:16:33;;;;;;;0.17;0.17;;;1.00;99.90;;;;;;5094255;28;20176;-67
2023/01/27 09:18:58;;;;;;;0.00;0.00;;;1.00;99.90;;;;;;5095359;28;20176;-68
2023/01/27 09:21:25;;;;;;;0.43;0.37;;;1.00;99.90;;;;;;5095126;28;20237;-67
2023/01/27 09:23:50;;;;;;;0.00;0.00;;;1.00;99.90;;;;;;5095164;28;20263;-67
2023/01/27 09:26:17;;;;;;;0.10;0.10;;;1.00;99.90;;;;;;5095197;28;20665;-67
2023/01/27 09:28:42;;;;;;;0.00;0.00;;;1.10;99.90;;;;;;5095180;28;20164;-67
2023/01/27 09:31:08;;;;;;;0.00;0.00;;;1.10;99.90;;;;;;5094953;28;20696;-67
2023/01/27 09:33:34;;;;;;;0.00;0.00;;;1.00;99.90;;;;;;5093614;28;20233;-67
2023/01/27 09:36:08;;;;;;;0.08;0.08;;;1.00;99.90;;;;;;5094946;28;20195;-67
2023/01/27 09:38:39;;;;;;;0.00;0.00;;;1.00;99.90;;;;;;5094324;28;20184;-67
2023/01/27 09:41:42;;;;;;;0.00;0.00;;;1.00;99.90;;;;;;5094055;28;20574;-65
2023/01/27 09:44:31;;;;;;;0.10;0.10;;;1.00;99.90;;;;;;5094542;28;20268;-68
2023/01/27 09:47:32;;;;;;;0.00;0.00;;;1.00;99.90;;;;;;5080608;28;20176;-70
2023/01/27 09:50:10;;;;;;;0.00;0.00;;;1.10;99.90;;;;;;5092766;28;20186;-70
2023/01/27 09:53:13;;;;;;;0.10;0.10;;;1.20;99.90;;;;;;5094057;28;20207;-66
2023/01/27 09:55:51;;;;;;;0.00;0.00;;;1.20;99.90;;;;;;5085729;28;20184;-66
2023/01/27 09:58:31;;;;;;;0.00;0.00;;;1.20;99.90;;;;;;5093923;28;20191;-66
2023/01/27 10:01:08;;;;;;;0.00;0.00;;;1.20;99.90;;;;;;5093075;28;20203;-67
2023/01/27 10:03:36;;;;;;;0.00;0.00;;;1.20;99.90;;;;;;5093945;28;20616;-66
2023/01/27 10:06:11;;;;;;;0.00;0.00;;;1.20;99.90;;;;;;5093941;28;20180;-63
2023/01/27 10:08:37;;;;;;;0.00;0.00;;;1.20;99.90;;;;;;5093658;28;20716;-65
2023/01/27 10:11:08;;;;;;;0.00;0.00;;;1.20;99.90;;;;;;5093763;28;20177;-65
2023/01/27 10:13:51;;;;;;;0.00;0.00;;;1.20;99.90;;;;;;5093521;28;20235;-65
2023/01/27 10:16:52;;;;;;;0.00;0.00;;;1.30;99.90;;;;;;5092269;28;20530;-68
2023/01/27 10:19:39;;;;;;;0.00;0.00;;;1.30;99.90;;;;;;5068438;28;20626;-70
2023/01/27 10:22:41;;;;;;;0.10;0.10;;;1.90;99.90;;;;;;5093334;28;20176;-70
2023/01/27 10:25:06;;;;;;;0.00;0.00;;;2.10;99.90;;;;;;5077700;28;20581;-70
2023/01/27 10:27:36;;;;;;;0.00;0.00;;;2.10;99.90;;;;;;5093827;28;20205;-70
2023/01/27 10:30:27;;;;;;;0.00;0.00;;;1.90;99.90;;;;;;5093940;28;20193;-70
2023/01/27 10:32:56;;;;;;;0.00;0.00;;;1.80;99.90;;;;;;5093746;28;20178;-70
2023/01/27 10:35:46;;;;;;;0.00;0.00;;;1.70;99.90;;;;;;5093741;28;20180;-70
2023/01/27 10:38:43;;;;;;;0.00;0.00;;;1.60;99.90;;;;;;5072480;28;20187;-70
2023/01/27 10:41:26;;;;;;;0.00;0.00;;;1.60;99.90;;;;;;5092527;28;20203;-70
2023/01/27 10:44:04;;;;;;;0.00;0.00;;;1.50;99.90;;;;;;5093505;28;20222;-70
2023/01/27 10:46:48;;;;;;;0.00;0.00;;;1.40;99.90;;;;;;5093678;28;20160;-70
2023/01/27 10:49:28;;;;;;;0.00;0.00;;;1.40;99.90;;;;;;5093705;28;20638;-70
2023/01/27 10:52:34;;;;;;;0.10;0.10;;;1.40;99.90;;;;;;5093511;28;20198;-69
2023/01/27 10:55:16;;;;;;;0.00;0.00;;;1.40;99.90;;;;;;5093363;28;20272;-70
2023/01/27 10:57:59;;;;;;;0.00;0.00;;;1.50;99.90;;;;;;5093380;28;20501;-69
2023/01/27 11:00:34;;;;;;;0.00;0.00;;;1.50;99.90;;;;;;5092166;28;20180;-70
2023/01/27 11:03:29;;;;;;;0.10;0.10;;;1.50;99.90;;;;;;5093208;28;20693;-70
2023/01/27 11:06:07;;;;;;;0.00;0.00;;;1.50;99.90;;;;;;5088533;28;20184;-70
2023/01/27 11:08:35;;;;;;;0.00;0.00;;;1.50;99.90;;;;;;5088701;28;20714;-69
2023/01/27 11:14:00;;;;;;;0.00;0.00;;;1.50;99.90;;;;;;5089286;28;20773;-69
2023/01/27 11:16:31;;;;;;;0.10;0.10;;;1.50;99.90;;;;;;5073247;28;20649;-70
2023/01/27 11:19:04;;;;;;;0.00;0.00;;;1.50;99.90;;;;;;5072684;28;20188;-69
2023/01/27 11:21:31;;;;;;;0.00;0.00;;;1.60;99.90;;;;;;5091446;28;20179;-69
2023/01/27 11:24:04;;;;;;;0.00;0.00;;;1.70;99.90;;;;;;5090966;28;20188;-63
2023/01/27 11:26:39;;;;;;;0.15;0.15;;;1.60;99.90;;;;;;5092963;28;20183;-68
2023/01/27 11:29:25;;;;;;;0.00;0.00;;;1.70;99.90;;;;;;5107848;28;20211;-70
2023/01/27 11:32:01;;;;;;;0.00;0.00;;;1.70;99.90;;;;;;5092446;28;20544;-68
2023/01/27 11:34:58;;;;;;;0.05;0.05;;;1.80;99.90;;;;;;5091463;28;20273;-66
2023/01/27 11:37:29;;;;;;;0.05;0.05;;;2.30;99.90;;;;;;5077835;28;20222;-69
2023/01/27 11:39:55;;;;;;;0.00;0.00;;;2.70;99.90;;;;;;5092511;28;20571;-68
2023/01/27 11:42:22;;;;;;;0.00;0.00;;;2.70;99.90;;;;;;5092061;28;20203;-68
2023/01/27 11:44:52;;;;;;;0.00;0.00;;;2.70;99.90;;;;;;5092401;28;20269;-68
2023/01/27 11:47:24;;;;;;;0.00;0.00;;;2.70;99.90;;;;;;5091232;28;20176;-68
2023/01/27 11:49:52;;;;;;;0.00;0.00;;;2.60;99.90;;;;;;5092430;28;20183;-68
2023/01/27 11:52:20;;;;;;;0.00;0.00;;;2.60;99.90;;;;;;5092420;28;20539;-68
2023/01/27 11:55:13;;;;;;;0.10;0.10;;;2.50;99.90;;;;;;5091031;28;20208;-69
2023/01/27 11:57:46;;;;;;;0.00;0.00;;;2.40;99.90;;;;;;5092356;28;20176;-68
2023/01/27 12:00:24;;;;;;;0.10;0.10;;;2.40;99.90;;;;;;5092321;28;20195;-69
2023/01/27 12:03:17;;;;;;;0.00;0.00;;;2.30;99.90;;;;;;5093501;28;20248;-68
2023/01/27 12:05:52;;;;;;;0.00;0.00;;;2.20;99.90;;;;;;5093575;28;20176;-68
2023/01/27 12:08:44;;;;;;;0.00;0.00;;;2.20;99.90;;;;;;5093335;28;20295;-68
2023/01/27 12:11:22;;;;;;;0.00;0.00;;;2.10;99.90;;;;;;5091452;28;20503;-69
2023/01/27 12:14:02;;;;;;;0.00;0.00;;;2.00;99.90;;;;;;5092578;28;20253;-68
2023/01/27 12:16:47;;;;;;;0.43;0.13;;;1.90;99.90;;;;;;5093059;28;20183;-69
2023/01/27 12:19:34;;;;;;;0.00;0.00;;;1.80;99.90;;;;;;5091988;28;20180;-69
2023/01/27 12:22:06;;;;;;;0.00;0.00;;;1.80;99.90;;;;;;5091543;28;20191;-68
2023/01/27 12:24:34;;;;;;;0.00;0.00;;;1.80;99.90;;;;;;5093182;28;20630;-68
2023/01/27 12:27:01;;;;;;;0.00;0.00;;;1.80;99.90;;;;;;5092724;28;20187;-68
2023/01/27 12:29:40;;;;;;;0.00;0.00;;;1.70;99.90;;;;;;5091956;28;20172;-69
2023/01/27 12:32:16;;;;;;;0.00;0.00;;;1.70;99.90;;;;;;5093084;28;20183;-69
2023/01/27 12:34:45;;;;;;;0.20;0.20;;;1.80;99.90;;;;;;5091725;28;20211;-69
2023/01/27 12:37:20;;;;;;;0.32;0.32;;;1.80;99.90;;;;;;5072785;28;20181;-69
2023/01/27 12:39:56;;;;;;;0.00;0.00;;;1.90;99.90;;;;;;5072726;28;20263;-68
2023/01/27 12:42:50;;;;;;;0.00;0.00;;;2.00;99.90;;;;;;5072509;28;20173;-68
2023/01/27 12:45:28;;;;;;;0.05;0.05;;;2.00;99.90;;;;;;5071498;28;20181;-68
2023/01/27 12:48:16;;;;;;;0.00;0.00;;;2.00;99.90;;;;;;5076737;28;20642;-68
2023/01/27 12:50:49;;;;;;;0.00;0.00;;;2.00;99.90;;;;;;5075304;28;20180;-68
2023/01/27 12:53:28;;;;;;;0.00;0.00;;;2.00;99.90;;;;;;5075520;28;20278;-68
2023/01/27 12:56:02;;;;;;;0.00;0.00;;;2.00;99.90;;;;;;5076393;28;20586;-67
2023/01/27 12:58:28;;;;;;;0.00;0.00;;;2.10;99.90;;;;;;5076833;28;20639;-68
2023/01/27 13:00:54;;;;;;;0.00;0.00;;;2.10;99.90;;;;;;5075461;28;20195;-69
2023/01/27 13:03:20;;;;;;;0.00;0.00;;;2.10;99.90;;;;;;5076738;28;20179;-69
2023/01/27 13:05:46;;;;;;;0.00;0.00;;;2.20;99.90;;;;;;5085879;28;20176;-69
2023/01/27 13:08:16;;;;;;;0.00;0.00;;;2.10;99.90;;;;;;5094665;28;20184;-69
2023/01/27 13:10:54;;;;;;;0.00;0.00;;;2.10;99.90;;;;;;5094309;28;20176;-68
2023/01/27 13:13:25;;;;;;;0.00;0.00;;;2.20;99.90;;;;;;5095237;28;20227;-69
2023/01/27 13:15:56;;;;;;;0.00;0.00;;;2.20;99.90;;;;;;5095377;28;20752;-68
2023/01/27 13:18:22;;;;;;;0.00;0.00;;;2.20;99.90;;;;;;5095419;28;20610;-69
2023/01/27 13:20:53;;;;;;;0.00;0.00;;;2.20;99.90;;;;;;5095278;28;20195;-68
2023/01/27 13:23:37;;;;;;;0.00;0.00;;;2.30;99.90;;;;;;5095818;28;20172;-68
2023/01/27 13:26:08;;;;;;;0.00;0.00;;;2.30;99.90;;;;;;5093760;28;20184;-69
2023/01/27 13:28:55;;;;;;;0.00;0.00;;;2.30;99.90;;;;;;5095553;28;20267;-69
2023/01/27 13:31:41;;;;;;;0.00;0.00;;;2.20;99.90;;;;;;5094998;28;20263;-70
2023/01/27 13:34:21;;;;;;;0.00;0.00;;;2.20;99.90;;;;;;5093961;28;20219;-69
2023/01/27 13:37:01;;;;;;;0.00;0.00;;;2.20;99.90;;;;;;5094529;28;20176;-69
2023/01/27 13:40:03;;;;;;;0.00;0.00;;;2.20;99.90;;;;;;5094336;28;20180;-69
2023/01/27 13:42:42;;;;;;;0.10;0.05;;;2.20;99.90;;;;;;5095336;28;20250;-69
2023/01/27 13:45:31;;;;;;;0.00;0.00;;;2.20;99.90;;;;;;5094994;28;20666;-69